createdAt,value
2023-01-17T00:02:47.776Z,100997.41
2023-01-17T00:08:08.929Z,101000.91
2023-01-17T00:13:11.705Z,101006.28
2023-01-17T00:18:14.309Z,101011.41
2023-01-17T00:23:37.697Z,101025.19
2023-01-17T00:28:42.085Z,101035.25
2023-01-17T00:33:44.970Z,101033.78
2023-01-17T00:38:47.525Z,101018.34
2023-01-17T00:44:08.627Z,101035.28
2023-01-17T00:49:29.797Z,101024.97
2023-01-17T00:54:50.892Z,101035.53
2023-01-17T01:00:12.019Z,101020.31
2023-01-17T01:05:34.236Z,101028.41
2023-01-17T01:10:55.576Z,101014.63
2023-01-17T01:16:20.489Z,101041.50
2023-01-17T01:21:41.939Z,101049.94
2023-01-17T01:27:03.166Z,101060.22
2023-01-17T01:32:24.754Z,101059.97
2023-01-17T01:37:27.474Z,101080.16
2023-01-17T01:42:30.177Z,101066.56
2023-01-17T01:47:39.014Z,101071.84
2023-01-17T01:52:45.094Z,101098.09
2023-01-17T01:57:51.125Z,101089.19
2023-01-17T02:02:55.061Z,101104.44
2023-01-17T02:08:03.671Z,101103.69
2023-01-17T02:13:07.483Z,101108.25
2023-01-17T02:18:43.358Z,101112.53
2023-01-17T02:23:58.021Z,101118.50
2023-01-17T02:29:18.293Z,101105.31
2023-01-17T02:34:48.124Z,101118.50
2023-01-17T02:39:58.554Z,101122.53
2023-01-17T02:45:02.871Z,101137.19
2023-01-17T02:50:16.442Z,101131.00
2023-01-17T02:55:28.422Z,101152.91
2023-01-17T03:00:37.145Z,101152.78
2023-01-17T03:05:52.270Z,101160.13
2023-01-17T03:10:55.565Z,101151.94
2023-01-17T03:15:58.344Z,101168.22
2023-01-17T03:21:02.153Z,101180.66
2023-01-17T03:26:04.904Z,101174.06
2023-01-17T03:31:07.858Z,101177.50
2023-01-17T03:36:12.305Z,101183.56
2023-01-17T03:41:14.954Z,101175.22
2023-01-17T03:46:25.919Z,101183.75
2023-01-17T03:51:28.649Z,101192.59
2023-01-17T03:56:31.380Z,101193.22
2023-01-17T04:01:34.194Z,101209.03
2023-01-17T04:06:37.028Z,101223.69
2023-01-17T04:11:39.733Z,101212.13
2023-01-17T04:16:42.566Z,101225.22
2023-01-17T04:21:45.256Z,101225.22
2023-01-17T04:26:48.141Z,101221.59
2023-01-17T04:31:51.079Z,101235.13
2023-01-17T04:36:53.779Z,101237.91
2023-01-17T04:41:56.557Z,101250.53
2023-01-17T04:46:59.273Z,101232.34
2023-01-17T04:52:01.877Z,101242.91
2023-01-17T04:57:04.698Z,101237.34
2023-01-17T05:02:07.386Z,101247.03
2023-01-17T05:07:10.207Z,101256.16
2023-01-17T05:12:13.003Z,101249.53
2023-01-17T05:17:15.802Z,101245.44
2023-01-17T05:22:18.705Z,101252.34
2023-01-17T05:27:21.324Z,101266.56
2023-01-17T05:32:24.063Z,101252.47
2023-01-17T05:37:26.665Z,101231.19
2023-01-17T05:42:29.354Z,101249.38
2023-01-17T05:47:31.980Z,101247.59
2023-01-17T05:52:34.620Z,101245.84
2023-01-17T05:57:37.284Z,101255.09
2023-01-17T06:02:40.110Z,101254.63
2023-01-17T06:07:46.740Z,101261.69
2023-01-17T06:12:49.877Z,101264.00
2023-01-17T06:17:52.717Z,101236.50
2023-01-17T06:22:55.691Z,101261.19
2023-01-17T06:27:58.520Z,101254.16
2023-01-17T06:33:01.248Z,101246.09
2023-01-17T06:38:04.168Z,101250.81
2023-01-17T06:43:06.978Z,101263.75
2023-01-17T06:48:09.661Z,101269.19
2023-01-17T06:53:12.553Z,101259.31
2023-01-17T06:58:15.332Z,101264.06
2023-01-17T07:03:23.444Z,101276.38
2023-01-17T07:08:26.094Z,101282.28
2023-01-17T07:13:29.289Z,101279.47
2023-01-17T07:18:34.022Z,101279.06
2023-01-17T07:23:36.663Z,101283.16
2023-01-17T07:28:39.563Z,101301.97
2023-01-17T07:33:42.200Z,101306.25
2023-01-17T07:38:47.113Z,101285.22
2023-01-17T07:43:49.945Z,101302.84
2023-01-17T07:48:53.567Z,101296.69
2023-01-17T07:53:56.334Z,101304.63
2023-01-17T07:58:59.101Z,101301.25
2023-01-17T08:04:01.866Z,101315.03
2023-01-17T08:09:04.561Z,101317.97
2023-01-17T08:14:07.223Z,101331.31
2023-01-17T08:19:10.623Z,101331.75
2023-01-17T08:24:14.415Z,101345.75
2023-01-17T08:29:17.053Z,101333.56
2023-01-17T08:34:19.824Z,101349.84
2023-01-17T08:39:22.586Z,101351.03
2023-01-17T08:44:25.458Z,101359.56
2023-01-17T08:49:31.081Z,101367.31
2023-01-17T08:54:33.856Z,101366.28
2023-01-17T08:59:36.527Z,101348.81
2023-01-17T09:04:40.848Z,101375.72
2023-01-17T09:09:43.589Z,101371.88
2023-01-17T09:14:46.642Z,101356.00
2023-01-17T09:19:49.308Z,101381.84
2023-01-17T09:24:52.122Z,101379.50
2023-01-17T09:29:54.765Z,101371.25
2023-01-17T09:35:01.111Z,101374.78
2023-01-17T09:40:04.396Z,101377.16
2023-01-17T09:45:15.728Z,101375.63
2023-01-17T09:50:36.173Z,101376.97
2023-01-17T09:55:54.211Z,101379.63
2023-01-17T10:01:21.528Z,101373.13
2023-01-17T10:06:35.155Z,101374.56
2023-01-17T10:12:14.523Z,101391.13
2023-01-17T10:17:36.750Z,101377.50
2023-01-17T10:22:44.217Z,101395.84
2023-01-17T10:27:59.433Z,101384.25
2023-01-17T10:33:22.733Z,101346.75
2023-01-17T10:38:35.105Z,101403.47
2023-01-17T10:43:47.831Z,101387.31
2023-01-17T10:48:53.061Z,101399.19
2023-01-17T10:54:22.774Z,101409.44
2023-01-17T10:59:32.301Z,101418.09
2023-01-17T11:04:39.712Z,101420.44
2023-01-17T11:09:44.847Z,101419.38
2023-01-17T11:15:07.379Z,101413.38
2023-01-17T11:20:17.475Z,101419.09
2023-01-17T11:25:22.752Z,101416.88
2023-01-17T11:30:29.740Z,101425.69
2023-01-17T11:35:35.151Z,101428.78
2023-01-17T11:40:47.427Z,101418.66
2023-01-17T11:46:18.593Z,101427.44
2023-01-17T11:51:26.360Z,101415.72
2023-01-17T11:56:33.738Z,101414.06
2023-01-17T12:02:15.970Z,101429.81
2023-01-17T12:07:28.707Z,101416.44
2023-01-17T12:13:00.475Z,101426.00
2023-01-17T12:18:28.834Z,101417.34
2023-01-17T12:23:45.059Z,101425.53
2023-01-17T12:29:26.098Z,101424.03
2023-01-17T12:34:32.714Z,101433.25
2023-01-17T12:39:41.612Z,101423.56
2023-01-17T12:45:06.429Z,101444.28
2023-01-17T12:50:36.919Z,101450.88
2023-01-17T12:55:50.191Z,101451.22
2023-01-17T13:01:01.377Z,101445.31
2023-01-17T13:06:06.876Z,101441.22
2023-01-17T13:11:16.709Z,101450.28
2023-01-17T13:16:24.967Z,101460.91
2023-01-17T13:21:30.454Z,101467.81
2023-01-17T13:26:41.845Z,101469.41
2023-01-17T13:32:07.714Z,101460.03
2023-01-17T13:37:22.862Z,101469.56
2023-01-17T13:42:46.775Z,101462.34
2023-01-17T13:47:49.472Z,101459.16
2023-01-17T13:52:58.380Z,101460.72
2023-01-17T13:58:01.198Z,101456.66
2023-01-17T14:03:03.986Z,101455.16
2023-01-17T14:08:16.670Z,101468.09
2023-01-17T14:13:34.547Z,101432.66
2023-01-17T14:18:37.163Z,101462.22
2023-01-17T14:23:56.310Z,101474.69
2023-01-17T14:29:00.528Z,101478.31
2023-01-17T14:34:13.771Z,101490.78
2023-01-17T14:39:22.787Z,101488.75
2023-01-17T14:44:25.448Z,101486.25
2023-01-17T14:49:28.212Z,101489.50
2023-01-17T14:54:30.836Z,101491.81
2023-01-17T14:59:33.683Z,101501.06
2023-01-17T15:04:40.037Z,101504.44
2023-01-17T15:09:43.758Z,101499.06
2023-01-17T15:14:47.069Z,101500.81
2023-01-17T15:19:54.407Z,101503.00
2023-01-17T15:24:57.539Z,101498.16
2023-01-17T15:30:02.839Z,101490.81
2023-01-17T15:35:08.343Z,101490.38
2023-01-17T15:40:23.041Z,101501.53
2023-01-17T15:45:29.695Z,101511.34
2023-01-17T15:50:36.780Z,101497.06
2023-01-17T15:55:40.414Z,101523.09
2023-01-17T16:00:47.320Z,101516.50
2023-01-17T16:05:50.922Z,101511.94
2023-01-17T16:11:02.642Z,101508.16
2023-01-17T16:16:13.641Z,101526.63
2023-01-17T16:21:25.749Z,101539.25
2023-01-17T16:26:29.514Z,101541.44
2023-01-17T16:31:34.063Z,101541.53
2023-01-17T16:36:37.242Z,101559.03
2023-01-17T16:41:39.890Z,101567.25
2023-01-17T16:46:42.723Z,101564.94
2023-01-17T16:51:48.246Z,101576.34
2023-01-17T16:56:51.162Z,101577.63
2023-01-17T17:01:54.120Z,101586.00
2023-01-17T17:06:56.910Z,101593.81
2023-01-17T17:11:59.627Z,101597.34
2023-01-17T17:17:02.339Z,101609.97
2023-01-17T17:22:06.836Z,101606.41
2023-01-17T17:27:09.475Z,101610.97
2023-01-17T17:32:12.356Z,101619.06
2023-01-17T17:37:17.877Z,101621.38
2023-01-17T17:42:20.996Z,101631.22
2023-01-17T17:47:24.436Z,101630.19
2023-01-17T17:52:28.363Z,101627.81
2023-01-17T17:57:31.121Z,101645.16
2023-01-17T18:02:33.931Z,101655.34
2023-01-17T18:07:36.889Z,101672.72
2023-01-17T18:12:39.518Z,101683.34
2023-01-17T18:17:42.178Z,101678.81
2023-01-17T18:22:44.913Z,101692.88
2023-01-17T18:27:47.496Z,101703.59
2023-01-17T18:32:50.279Z,101697.94
2023-01-17T18:37:53.113Z,101710.78
2023-01-17T18:42:56.290Z,101719.72
2023-01-17T18:47:59.962Z,101722.66
2023-01-17T18:53:02.612Z,101743.41
2023-01-17T18:58:05.231Z,101743.50
2023-01-17T19:03:07.854Z,101748.91
2023-01-17T19:08:10.829Z,101754.66
2023-01-17T19:13:13.514Z,101753.97
2023-01-17T19:18:16.226Z,101752.06
2023-01-17T19:23:18.954Z,101764.19
2023-01-17T19:28:22.295Z,101735.31
2023-01-17T19:33:25.118Z,101769.91
2023-01-17T19:38:28.489Z,101779.91
2023-01-17T19:43:31.137Z,101786.66
2023-01-17T19:48:33.765Z,101759.53
2023-01-17T19:53:37.571Z,101804.06
2023-01-17T19:58:40.256Z,101811.75
2023-01-17T20:03:47.436Z,101821.31
2023-01-17T20:08:50.250Z,101825.59
2023-01-17T20:13:55.360Z,101828.25
2023-01-17T20:18:59.449Z,101842.28
2023-01-17T20:24:05.183Z,101840.19
2023-01-17T20:29:12.347Z,101849.22
2023-01-17T20:34:19.030Z,101862.19
2023-01-17T20:39:21.649Z,101860.59
2023-01-17T20:44:24.728Z,101871.09
2023-01-17T20:49:27.499Z,101881.06
2023-01-17T20:54:30.204Z,101830.44
2023-01-17T20:59:32.917Z,101889.22
2023-01-17T21:04:35.682Z,101886.72
2023-01-17T21:09:38.370Z,101887.59
2023-01-17T21:14:43.315Z,101903.59
2023-01-17T21:19:45.978Z,101899.50
2023-01-17T21:24:48.856Z,101910.72
2023-01-17T21:29:53.347Z,101905.91
2023-01-17T21:34:55.956Z,101927.91
2023-01-17T21:40:00.523Z,101928.06
2023-01-17T21:45:02.956Z,101938.88
2023-01-17T21:50:05.968Z,101939.25
2023-01-17T21:55:27.479Z,101938.13
2023-01-17T22:00:30.268Z,101943.44
2023-01-17T22:05:34.279Z,101951.41
2023-01-17T22:10:44.819Z,101955.81
2023-01-17T22:15:58.951Z,101962.19
2023-01-17T22:21:08.176Z,101971.38
2023-01-17T22:26:12.142Z,101967.44
2023-01-17T22:31:26.226Z,101973.81
2023-01-17T22:36:30.207Z,101982.06
2023-01-17T22:41:35.063Z,101989.81
2023-01-17T22:46:38.735Z,101999.50
2023-01-17T22:51:41.514Z,102014.34
2023-01-17T22:56:44.164Z,102017.88
2023-01-17T23:01:46.863Z,102010.19
2023-01-17T23:06:49.707Z,102039.34
2023-01-17T23:11:54.450Z,102038.78
2023-01-17T23:17:21.124Z,102058.78
2023-01-17T23:22:27.227Z,102061.56
2023-01-17T23:27:52.768Z,102065.94
2023-01-17T23:32:58.013Z,102071.91
2023-01-17T23:38:19.765Z,102072.09
2023-01-17T23:43:25.370Z,102073.22
2023-01-17T23:48:28.212Z,102081.28
2023-01-17T23:53:30.977Z,102100.22
2023-01-17T23:58:34.306Z,102102.22
